createdAt,value
2018-05-21T00:00:53.301Z,52.01
2018-05-21T00:03:21.621Z,51.92
2018-05-21T00:05:49.968Z,52.10
2018-05-21T00:08:18.289Z,52.47
2018-05-21T00:10:46.628Z,52.47
2018-05-21T00:13:14.949Z,52.17
2018-05-21T00:15:43.288Z,51.89
2018-05-21T00:18:11.604Z,51.65
2018-05-21T00:20:39.944Z,51.08
2018-05-21T00:23:08.270Z,50.25
2018-05-21T00:25:36.608Z,50.07
2018-05-21T00:28:04.928Z,49.69
2018-05-21T00:30:33.269Z,49.50
2018-05-21T00:33:01.593Z,48.46
2018-05-21T00:35:29.939Z,47.98
2018-05-21T00:37:58.256Z,47.76
2018-05-21T00:40:26.604Z,47.66
2018-05-21T00:42:54.916Z,47.56
2018-05-21T00:45:23.260Z,46.92
2018-05-21T00:47:51.581Z,47.54
2018-05-21T00:50:19.925Z,47.15
2018-05-21T00:52:48.240Z,47.38
2018-05-21T00:55:28.481Z,47.81
2018-05-21T00:57:56.800Z,47.38
2018-05-21T01:00:25.143Z,47.42
2018-05-21T01:02:53.464Z,47.51
2018-05-21T01:05:21.802Z,47.51
2018-05-21T01:07:50.120Z,47.65
2018-05-21T01:10:18.461Z,49.04
2018-05-21T01:12:46.772Z,48.99
2018-05-21T01:15:15.113Z,48.87
2018-05-21T01:17:43.428Z,49.01
2018-05-21T01:20:11.769Z,49.13
2018-05-21T01:22:40.093Z,48.70
2018-05-21T01:25:08.432Z,48.81
2018-05-21T01:27:36.748Z,49.19
2018-05-21T01:30:05.093Z,49.52
2018-05-21T01:32:33.404Z,50.01
2018-05-21T01:35:01.761Z,50.20
2018-05-21T01:37:30.084Z,50.40
2018-05-21T01:42:32.093Z,51.10
2018-05-21T01:45:00.432Z,51.04
2018-05-21T01:47:28.748Z,50.84
2018-05-21T01:49:57.060Z,50.66
2018-05-21T01:52:25.400Z,50.79
2018-05-21T01:54:53.720Z,50.73
2018-05-21T01:57:22.063Z,50.70
2018-05-21T01:59:50.389Z,51.00
2018-05-21T02:02:18.734Z,51.07
2018-05-21T02:04:47.069Z,51.11
2018-05-21T02:07:15.408Z,50.79
2018-05-21T02:09:43.730Z,50.75
2018-05-21T02:12:12.072Z,50.68
2018-05-21T02:14:40.402Z,51.12
2018-05-21T02:17:08.740Z,50.97
2018-05-21T02:19:37.061Z,50.87
2018-05-21T02:22:05.405Z,50.70
2018-05-21T02:24:33.721Z,50.43
2018-05-21T02:27:02.171Z,50.09
2018-05-21T02:29:30.385Z,50.05
2018-05-21T02:31:58.736Z,50.21
2018-05-21T02:34:27.061Z,50.38
2018-05-21T02:36:55.413Z,50.85
2018-05-21T02:39:23.737Z,51.52
2018-05-21T02:41:52.088Z,51.93
2018-05-21T02:44:20.422Z,52.52
2018-05-21T02:46:48.760Z,52.87
2018-05-21T02:49:17.079Z,52.71
2018-05-21T02:51:45.432Z,52.77
2018-05-21T02:54:13.761Z,52.52
2018-05-21T02:56:42.112Z,52.27
2018-05-21T02:59:10.429Z,52.30
2018-05-21T03:01:38.780Z,52.09
2018-05-21T03:04:07.105Z,52.75
2018-05-21T03:06:35.457Z,52.66
2018-05-21T03:09:03.772Z,53.08
2018-05-21T03:11:32.125Z,53.23
2018-05-21T03:14:00.452Z,53.32
2018-05-21T03:16:28.813Z,53.34
2018-05-21T03:18:57.138Z,53.57
2018-05-21T03:21:25.493Z,53.21
2018-05-21T03:23:53.821Z,52.86
2018-05-21T03:26:22.177Z,53.30
2018-05-21T03:28:50.506Z,53.85
2018-05-21T03:31:18.875Z,54.20
2018-05-21T03:33:47.183Z,54.75
2018-05-21T03:36:15.541Z,55.87
2018-05-21T03:38:43.881Z,56.17
2018-05-21T03:41:12.228Z,56.04
2018-05-21T03:43:40.556Z,56.20
2018-05-21T03:46:08.921Z,55.96
2018-05-21T03:48:37.240Z,56.39
2018-05-21T03:51:05.574Z,56.48
2018-05-21T03:53:33.917Z,56.48
2018-05-21T03:56:02.245Z,56.65
2018-05-21T03:58:42.482Z,56.33
2018-05-21T04:01:22.601Z,56.21
2018-05-21T04:03:55.871Z,56.39
2018-05-21T04:06:24.228Z,56.57
2018-05-21T04:08:52.562Z,56.75
2018-05-21T04:11:20.924Z,56.47
2018-05-21T04:13:49.255Z,56.44
2018-05-21T04:16:17.574Z,56.36
2018-05-21T04:18:46.004Z,56.30
2018-05-21T04:21:14.251Z,56.11
2018-05-21T04:23:42.596Z,55.90
2018-05-21T04:26:10.936Z,56.15
2018-05-21T04:28:39.287Z,56.13
2018-05-21T04:31:07.621Z,56.12
2018-05-21T04:33:35.965Z,56.02
2018-05-21T04:36:04.301Z,56.00
2018-05-21T04:38:32.682Z,55.92
2018-05-21T04:41:01.014Z,56.00
2018-05-21T04:43:29.365Z,55.40
2018-05-21T04:45:57.696Z,56.10
2018-05-21T04:48:26.072Z,55.79
2018-05-21T04:50:54.400Z,55.29
2018-05-21T04:53:22.749Z,55.03
2018-05-21T04:55:51.084Z,54.25
2018-05-21T04:58:19.438Z,54.42
2018-05-21T05:00:47.756Z,54.16
2018-05-21T05:03:16.100Z,53.92
2018-05-21T05:05:44.412Z,54.11
2018-05-21T05:08:12.769Z,54.21
2018-05-21T05:10:41.093Z,54.01
2018-05-21T05:13:09.437Z,53.70
2018-05-21T05:15:37.780Z,54.24
2018-05-21T05:18:06.112Z,54.19
2018-05-21T05:20:34.445Z,53.84
2018-05-21T05:23:02.793Z,53.54
2018-05-21T05:25:31.124Z,53.31
2018-05-21T05:27:59.476Z,53.50
2018-05-21T05:30:27.813Z,53.12
2018-05-21T05:32:56.164Z,53.32
2018-05-21T05:35:24.489Z,52.77
2018-05-21T05:37:52.837Z,52.85
2018-05-21T05:40:21.153Z,52.98
2018-05-21T05:42:49.492Z,52.77
2018-05-21T05:45:17.813Z,52.83
2018-05-21T05:47:46.149Z,52.49
2018-05-21T05:50:14.470Z,52.24
2018-05-21T05:52:42.825Z,51.84
2018-05-21T05:55:11.140Z,52.02
2018-05-21T05:57:39.484Z,51.43
2018-05-21T06:00:07.805Z,49.92
2018-05-21T06:02:36.143Z,49.23
2018-05-21T06:05:04.476Z,48.20
2018-05-21T06:07:32.820Z,47.61
2018-05-21T06:10:01.153Z,47.25
2018-05-21T06:12:29.520Z,47.10
2018-05-21T06:14:57.842Z,47.67
2018-05-21T06:17:26.169Z,48.16
2018-05-21T06:19:54.512Z,47.30
2018-05-21T06:22:22.841Z,47.59
2018-05-21T06:24:51.184Z,47.13
2018-05-21T06:27:19.505Z,47.44
2018-05-21T06:29:48.145Z,47.30
2018-05-21T06:32:16.508Z,47.12
2018-05-21T06:34:44.855Z,46.38
2018-05-21T06:37:13.181Z,46.26
2018-05-21T06:39:41.528Z,46.09
2018-05-21T06:42:09.857Z,46.04
2018-05-21T06:44:38.209Z,46.05
2018-05-21T06:47:06.533Z,46.36
2018-05-21T06:49:34.889Z,45.67
2018-05-21T06:52:03.217Z,44.92
2018-05-21T06:54:31.563Z,44.92
2018-05-21T06:56:59.896Z,45.50
2018-05-21T06:59:28.240Z,45.59
2018-05-21T07:01:56.562Z,45.29
2018-05-21T07:04:24.918Z,45.41
2018-05-21T07:06:53.239Z,45.14
2018-05-21T07:09:21.594Z,44.41
2018-05-21T07:11:49.921Z,44.50
2018-05-21T07:14:18.269Z,44.26
2018-05-21T07:16:46.596Z,45.04
2018-05-21T07:19:14.949Z,44.89
2018-05-21T07:21:43.272Z,44.97
2018-05-21T07:24:11.633Z,44.76
2018-05-21T07:26:39.956Z,44.62
2018-05-21T07:29:08.309Z,45.31
2018-05-21T07:31:36.649Z,45.97
2018-05-21T07:34:04.992Z,45.67
2018-05-21T07:36:33.329Z,46.44
2018-05-21T07:39:01.680Z,45.95
2018-05-21T07:41:30.004Z,45.95
2018-05-21T07:43:58.353Z,46.84
2018-05-21T07:46:26.677Z,46.62
2018-05-21T07:48:55.683Z,46.75
2018-05-21T07:51:24.029Z,46.41
2018-05-21T07:53:52.365Z,47.05
2018-05-21T07:56:20.685Z,46.40
2018-05-21T07:58:49.037Z,46.45
2018-05-21T08:01:17.357Z,46.09
2018-05-21T08:03:45.709Z,45.64
2018-05-21T08:06:14.036Z,45.74
2018-05-21T08:08:42.381Z,45.87
2018-05-21T08:11:10.717Z,46.11
2018-05-21T08:13:39.177Z,45.17
2018-05-21T08:16:07.510Z,45.02
2018-05-21T08:18:35.852Z,45.00
2018-05-21T08:21:04.204Z,44.85
2018-05-21T08:23:32.529Z,44.52
2018-05-21T08:26:00.885Z,44.13
2018-05-21T08:28:29.220Z,43.59
2018-05-21T08:30:57.572Z,43.98
2018-05-21T08:33:25.909Z,44.21
2018-05-21T08:35:54.271Z,44.47
2018-05-21T08:38:22.594Z,44.09
2018-05-21T08:40:50.946Z,44.00
2018-05-21T08:43:19.267Z,44.04
2018-05-21T08:45:47.616Z,43.01
2018-05-21T08:48:15.940Z,42.69
2018-05-21T08:50:44.728Z,42.41
2018-05-21T08:53:13.069Z,42.61
2018-05-21T08:55:41.413Z,42.09
2018-05-21T08:58:09.736Z,42.31
2018-05-21T09:00:38.084Z,42.10
2018-05-21T09:03:06.412Z,42.00
2018-05-21T09:05:34.757Z,42.08
2018-05-21T09:08:03.104Z,40.93
2018-05-21T09:10:32.370Z,42.03
2018-05-21T09:13:00.692Z,41.77
2018-05-21T09:15:29.042Z,41.37
2018-05-21T09:17:57.377Z,40.94
2018-05-21T09:20:25.721Z,40.90
2018-05-21T09:22:54.048Z,40.96
2018-05-21T09:25:22.394Z,39.88
2018-05-21T09:27:50.724Z,39.63
2018-05-21T09:30:19.077Z,39.95
2018-05-21T09:32:47.408Z,40.42
2018-05-21T09:35:15.748Z,39.36
2018-05-21T09:37:44.072Z,39.09
2018-05-21T09:40:12.424Z,38.71
2018-05-21T09:42:40.788Z,38.99
2018-05-21T09:45:09.146Z,38.45
2018-05-21T09:47:37.469Z,39.65
2018-05-21T09:50:05.817Z,38.79
2018-05-21T09:52:34.145Z,38.92
2018-05-21T09:55:02.496Z,39.14
2018-05-21T09:57:30.819Z,39.77
2018-05-21T09:59:59.168Z,39.73
2018-05-21T10:02:27.497Z,39.81
2018-05-21T10:04:55.840Z,38.98
2018-05-21T10:07:24.160Z,38.86
2018-05-21T10:09:52.506Z,38.60
2018-05-21T10:12:20.901Z,38.36
2018-05-21T10:14:49.255Z,37.76
2018-05-21T10:17:17.660Z,38.85
2018-05-21T10:19:46.001Z,37.47
2018-05-21T10:22:14.344Z,37.18
2018-05-21T10:24:42.688Z,36.00
2018-05-21T10:27:11.038Z,35.91
2018-05-21T10:29:39.361Z,37.11
2018-05-21T10:32:07.700Z,37.76
2018-05-21T10:34:36.033Z,37.32
2018-05-21T10:37:05.401Z,36.59
2018-05-21T10:39:33.825Z,36.97
2018-05-21T10:42:02.260Z,35.08
2018-05-21T10:44:30.593Z,35.66
2018-05-21T10:46:58.944Z,34.34
2018-05-21T10:49:27.470Z,33.91
2018-05-21T10:51:55.829Z,34.28
2018-05-21T10:54:24.156Z,33.53
2018-05-21T10:56:52.520Z,34.68
2018-05-21T10:59:20.857Z,33.61
2018-05-21T11:01:49.205Z,34.26
2018-05-21T11:04:17.605Z,33.73
2018-05-21T11:06:45.941Z,35.04
2018-05-21T11:09:14.377Z,35.98
2018-05-21T11:11:42.730Z,34.00
2018-05-21T11:14:11.079Z,34.19
2018-05-21T11:16:39.432Z,34.96
2018-05-21T11:19:07.762Z,34.90
2018-05-21T11:21:36.108Z,34.36
2018-05-21T11:24:04.436Z,34.68
2018-05-21T11:26:32.780Z,34.15
2018-05-21T11:29:01.116Z,33.52
2018-05-21T11:31:29.461Z,33.58
2018-05-21T11:33:57.792Z,33.14
2018-05-21T11:36:26.132Z,33.29
2018-05-21T11:38:54.624Z,34.13
2018-05-21T11:41:22.956Z,31.83
2018-05-21T11:43:51.285Z,32.32
2018-05-21T11:46:19.826Z,33.06
2018-05-21T11:48:48.185Z,33.29
2018-05-21T11:51:16.547Z,33.33
2018-05-21T11:53:44.879Z,34.91
2018-05-21T11:56:13.241Z,33.49
2018-05-21T11:58:41.578Z,33.23
2018-05-21T12:01:09.932Z,34.16
2018-05-21T12:03:38.284Z,33.44
2018-05-21T12:06:06.932Z,32.70
2018-05-21T12:08:35.257Z,33.09
2018-05-21T12:11:03.844Z,33.00
2018-05-21T12:13:32.253Z,33.03
2018-05-21T12:16:00.549Z,33.62
2018-05-21T12:18:28.877Z,33.09
2018-05-21T12:20:57.346Z,33.15
2018-05-21T12:23:25.695Z,33.11
2018-05-21T12:25:54.017Z,32.41
2018-05-21T12:28:22.369Z,31.69
2018-05-21T12:30:50.710Z,31.95
2018-05-21T12:33:19.055Z,31.95
2018-05-21T12:35:47.385Z,31.46
2018-05-21T12:38:15.806Z,32.02
2018-05-21T12:40:44.083Z,31.38
2018-05-21T12:43:12.433Z,31.17
2018-05-21T12:45:40.784Z,31.08
2018-05-21T12:48:09.316Z,31.60
2018-05-21T12:50:37.631Z,31.51
2018-05-21T12:53:05.982Z,32.15
2018-05-21T12:55:34.304Z,31.00
2018-05-21T12:58:02.652Z,30.64
2018-05-21T13:00:30.976Z,30.84
2018-05-21T13:02:59.329Z,30.85
2018-05-21T13:05:27.661Z,31.28
2018-05-21T13:07:56.060Z,30.36
2018-05-21T13:10:24.397Z,29.58
2018-05-21T13:12:52.746Z,29.32
2018-05-21T13:15:21.136Z,28.65
2018-05-21T13:17:49.433Z,28.47
2018-05-21T13:20:17.823Z,28.96
2018-05-21T13:22:46.625Z,29.70
2018-05-21T13:25:14.948Z,30.50
2018-05-21T13:27:43.310Z,30.90
2018-05-21T13:30:11.658Z,31.35
2018-05-21T13:32:39.996Z,29.42
2018-05-21T13:35:08.324Z,29.06
2018-05-21T13:37:36.664Z,28.97
2018-05-21T13:40:05.007Z,29.18
2018-05-21T13:42:34.164Z,28.56
2018-05-21T13:45:02.493Z,29.42
2018-05-21T13:47:30.900Z,29.56
2018-05-21T13:49:59.209Z,29.14
2018-05-21T13:52:27.672Z,27.85
2018-05-21T13:54:55.888Z,27.38
2018-05-21T13:57:24.253Z,27.42
2018-05-21T13:59:52.599Z,28.33
2018-05-21T14:02:20.964Z,28.52
2018-05-21T14:04:49.293Z,28.35
2018-05-21T14:07:17.653Z,28.98
2018-05-21T14:09:45.971Z,29.04
2018-05-21T14:12:14.442Z,28.48
2018-05-21T14:14:42.761Z,28.95
2018-05-21T14:17:11.161Z,28.89
2018-05-21T14:19:39.463Z,28.88
2018-05-21T14:22:08.771Z,28.83
2018-05-21T14:24:37.112Z,29.20
2018-05-21T14:27:06.277Z,27.79
2018-05-21T14:29:34.631Z,28.76
2018-05-21T14:32:02.984Z,29.58
2018-05-21T14:34:31.336Z,27.67
2018-05-21T14:36:59.676Z,28.39
2018-05-21T14:39:28.064Z,28.52
2018-05-21T14:41:56.376Z,29.60
2018-05-21T14:44:24.724Z,29.23
2018-05-21T14:46:53.056Z,29.76
2018-05-21T14:49:21.405Z,29.99
2018-05-21T14:51:49.735Z,28.78
2018-05-21T14:54:18.080Z,30.12
2018-05-21T14:56:46.408Z,29.00
2018-05-21T14:59:14.769Z,28.90
2018-05-21T15:01:43.110Z,28.82
2018-05-21T15:04:11.469Z,28.43
2018-05-21T15:06:39.810Z,29.10
2018-05-21T15:09:08.179Z,28.88
2018-05-21T15:11:36.497Z,27.37
2018-05-21T15:14:04.861Z,27.76
2018-05-21T15:16:33.234Z,28.11
2018-05-21T15:19:01.580Z,28.05
2018-05-21T15:21:29.943Z,28.45
2018-05-21T15:23:58.303Z,28.50
2018-05-21T15:26:26.643Z,28.00
2018-05-21T15:28:55.013Z,27.61
2018-05-21T15:31:23.360Z,28.51
2018-05-21T15:33:51.716Z,28.30
2018-05-21T15:36:20.044Z,27.77
2018-05-21T15:38:48.396Z,28.21
2018-05-21T15:41:17.573Z,28.11
2018-05-21T15:43:45.925Z,27.37
2018-05-21T15:46:14.266Z,27.72
2018-05-21T15:48:42.760Z,28.03
2018-05-21T15:51:10.956Z,27.83
2018-05-21T15:53:39.318Z,27.58
2018-05-21T15:56:07.742Z,27.96
2018-05-21T15:58:36.084Z,28.44
2018-05-21T16:01:04.505Z,28.62
2018-05-21T16:03:32.856Z,28.18
2018-05-21T16:06:01.204Z,28.35
2018-05-21T16:08:29.644Z,28.80
2018-05-21T16:10:57.933Z,29.45
2018-05-21T16:13:26.306Z,29.32
2018-05-21T16:15:54.632Z,29.64
2018-05-21T16:18:23.002Z,28.88
2018-05-21T16:20:51.968Z,29.52
2018-05-21T16:23:20.332Z,29.57
2018-05-21T16:25:48.665Z,29.35
2018-05-21T16:28:17.473Z,29.35
2018-05-21T16:30:47.327Z,28.74
2018-05-21T16:33:15.820Z,28.68
2018-05-21T16:35:44.179Z,29.69
2018-05-21T16:38:12.520Z,28.57
2018-05-21T16:40:40.865Z,29.49
2018-05-21T16:43:09.198Z,29.15
2018-05-21T16:45:37.557Z,30.12
2018-05-21T16:48:05.880Z,30.01
2018-05-21T16:50:34.233Z,30.05
2018-05-21T16:53:02.565Z,30.82
2018-05-21T16:55:30.905Z,31.05
2018-05-21T16:57:59.232Z,31.28
2018-05-21T17:00:27.599Z,30.95
2018-05-21T17:02:55.900Z,29.85
2018-05-21T17:05:24.245Z,28.85
2018-05-21T17:07:52.569Z,28.62
2018-05-21T17:10:21.062Z,29.12
2018-05-21T17:12:49.244Z,29.63
2018-05-21T17:15:17.593Z,29.80
2018-05-21T17:17:45.921Z,30.05
2018-05-21T17:20:14.726Z,30.36
2018-05-21T17:22:43.145Z,30.72
2018-05-21T17:25:11.533Z,30.87
2018-05-21T17:27:39.860Z,29.72
2018-05-21T17:30:08.441Z,29.86
2018-05-21T17:32:36.786Z,30.18
2018-05-21T17:35:05.191Z,30.06
2018-05-21T17:37:33.522Z,30.55
2018-05-21T17:40:02.592Z,30.53
2018-05-21T17:42:31.050Z,30.29
2018-05-21T17:44:59.453Z,30.62
2018-05-21T17:47:27.890Z,30.42
2018-05-21T17:49:56.384Z,30.85
2018-05-21T17:52:24.705Z,30.44
2018-05-21T17:54:53.060Z,31.03
2018-05-21T17:57:21.380Z,31.41
2018-05-21T17:59:49.897Z,31.09
2018-05-21T18:02:18.224Z,31.51
2018-05-21T18:04:46.569Z,31.69
2018-05-21T18:07:14.897Z,31.39
2018-05-21T18:09:43.245Z,31.67
2018-05-21T18:12:11.569Z,32.15
2018-05-21T18:14:39.934Z,32.41
2018-05-21T18:17:08.239Z,32.53
2018-05-21T18:19:37.646Z,32.61
2018-05-21T18:22:05.974Z,32.63
2018-05-21T18:24:34.320Z,33.06
2018-05-21T18:27:02.752Z,32.77
2018-05-21T18:29:31.084Z,33.18
2018-05-21T18:31:59.444Z,33.44
2018-05-21T18:34:27.798Z,33.38
2018-05-21T18:36:56.140Z,33.53
2018-05-21T18:39:25.129Z,33.78
2018-05-21T18:41:53.481Z,33.91
2018-05-21T18:44:21.800Z,34.14
2018-05-21T18:46:50.145Z,33.99
2018-05-21T18:49:18.473Z,34.29
2018-05-21T18:51:46.824Z,34.57
2018-05-21T18:54:15.157Z,34.53
2018-05-21T18:56:43.505Z,34.72
2018-05-21T18:59:11.845Z,34.92
2018-05-21T19:01:40.192Z,34.83
2018-05-21T19:04:08.516Z,34.96
2018-05-21T19:06:36.877Z,35.03
2018-05-21T19:09:06.036Z,35.22
2018-05-21T19:11:34.384Z,35.17
2018-05-21T19:14:02.721Z,35.30
2018-05-21T19:16:31.072Z,35.53
2018-05-21T19:18:59.406Z,35.77
2018-05-21T19:21:27.760Z,35.84
2018-05-21T19:23:56.096Z,35.80
2018-05-21T19:26:24.449Z,36.04
2018-05-21T19:28:52.789Z,36.26
2018-05-21T19:31:21.136Z,36.20
2018-05-21T19:33:49.468Z,36.18
2018-05-21T19:36:17.821Z,36.10
2018-05-21T19:38:46.165Z,36.26
2018-05-21T19:41:14.520Z,36.42
2018-05-21T19:43:42.853Z,36.45
2018-05-21T19:46:11.203Z,36.56
2018-05-21T19:48:39.533Z,36.71
2018-05-21T19:51:07.880Z,36.63
2018-05-21T19:53:36.204Z,36.81
2018-05-21T19:56:04.559Z,36.85
2018-05-21T19:58:32.885Z,36.91
2018-05-21T20:01:01.237Z,37.00
2018-05-21T20:03:29.565Z,37.11
2018-05-21T20:05:57.907Z,37.02
2018-05-21T20:08:26.234Z,36.91
2018-05-21T20:10:54.584Z,37.19
2018-05-21T20:13:22.914Z,37.12
2018-05-21T20:15:51.265Z,37.49
2018-05-21T20:18:31.289Z,37.59
2018-05-21T20:20:59.636Z,38.14
2018-05-21T20:23:27.960Z,39.11
2018-05-21T20:25:56.309Z,39.38
2018-05-21T20:28:24.639Z,39.46
2018-05-21T20:30:52.989Z,39.38
2018-05-21T20:33:21.328Z,39.56
2018-05-21T20:35:49.680Z,39.45
2018-05-21T20:38:18.041Z,40.60
2018-05-21T20:40:46.368Z,40.56
2018-05-21T20:43:14.732Z,41.07
2018-05-21T20:45:43.065Z,41.38
2018-05-21T20:48:11.420Z,41.32
2018-05-21T20:50:39.749Z,41.51
2018-05-21T20:53:08.093Z,41.75
2018-05-21T20:55:36.418Z,41.64
2018-05-21T20:58:04.771Z,41.90
2018-05-21T21:00:33.112Z,42.02
2018-05-21T21:03:02.428Z,42.11
2018-05-21T21:05:30.764Z,42.47
2018-05-21T21:07:59.120Z,42.15
2018-05-21T21:10:27.459Z,42.29
2018-05-21T21:12:55.812Z,42.88
2018-05-21T21:15:24.168Z,43.32
2018-05-21T21:17:52.520Z,43.97
2018-05-21T21:20:20.840Z,44.21
2018-05-21T21:22:50.026Z,44.33
2018-05-21T21:25:18.372Z,44.56
2018-05-21T21:27:46.729Z,44.80
2018-05-21T21:30:15.073Z,44.43
2018-05-21T21:32:43.428Z,44.32
2018-05-21T21:35:11.765Z,43.80
2018-05-21T21:37:40.117Z,44.49
2018-05-21T21:40:08.442Z,44.90
2018-05-21T21:42:36.789Z,45.04
2018-05-21T21:45:05.117Z,45.14
2018-05-21T21:47:33.479Z,45.51
2018-05-21T21:50:01.809Z,45.42
2018-05-21T21:52:30.165Z,45.46
2018-05-21T21:54:58.489Z,46.04
2018-05-21T21:57:26.837Z,46.42
2018-05-21T21:59:55.164Z,46.55
2018-05-21T22:02:23.508Z,46.71
2018-05-21T22:04:51.841Z,46.88
2018-05-21T22:07:20.204Z,47.34
2018-05-21T22:09:48.537Z,47.27
2018-05-21T22:12:16.889Z,47.76
2018-05-21T22:14:45.223Z,48.23
2018-05-21T22:17:13.573Z,48.89
2018-05-21T22:19:41.896Z,49.39
2018-05-21T22:22:10.244Z,49.76
2018-05-21T22:24:38.582Z,49.89
2018-05-21T22:27:06.926Z,50.34
2018-05-21T22:29:35.261Z,50.71
2018-05-21T22:32:03.601Z,50.58
2018-05-21T22:34:31.938Z,50.70
2018-05-21T22:37:00.304Z,50.77
2018-05-21T22:39:28.638Z,51.02
2018-05-21T22:41:56.964Z,51.18
2018-05-21T22:44:25.334Z,51.34
2018-05-21T22:46:53.670Z,51.14
2018-05-21T22:49:22.026Z,51.16
2018-05-21T22:51:50.365Z,51.23
2018-05-21T22:54:30.494Z,50.87
2018-05-21T22:56:58.817Z,50.92
2018-05-21T22:59:27.168Z,50.99
2018-05-21T23:01:55.500Z,50.26
2018-05-21T23:04:23.849Z,50.13
2018-05-21T23:06:52.186Z,50.83
2018-05-21T23:09:20.535Z,50.91
2018-05-21T23:11:48.875Z,50.86
2018-05-21T23:14:17.228Z,51.07
2018-05-21T23:16:45.557Z,51.30
2018-05-21T23:19:13.912Z,51.64
2018-05-21T23:21:42.238Z,52.03
2018-05-21T23:24:10.582Z,52.32
2018-05-21T23:26:38.908Z,52.44
2018-05-21T23:29:07.260Z,52.14
2018-05-21T23:31:35.591Z,51.89
2018-05-21T23:34:03.941Z,51.94
2018-05-21T23:36:32.268Z,51.75
2018-05-21T23:39:00.621Z,52.05
2018-05-21T23:41:28.953Z,52.27
2018-05-21T23:43:57.297Z,52.47
2018-05-21T23:46:25.628Z,52.41
2018-05-21T23:48:53.977Z,52.51
2018-05-21T23:51:22.293Z,52.85
2018-05-21T23:53:50.649Z,52.84
2018-05-21T23:56:18.997Z,53.08
2018-05-21T23:58:47.340Z,53.10
